createdAt,value
2023-03-18T00:05:25.736Z,101792.25
2023-03-18T00:15:29.107Z,101805.00
2023-03-18T00:25:33.505Z,101817.59
2023-03-18T00:35:36.857Z,101832.31
2023-03-18T00:45:42.971Z,101843.47
2023-03-18T00:55:46.778Z,101850.75
2023-03-18T01:05:54.132Z,101866.09
2023-03-18T01:15:57.689Z,101877.97
2023-03-18T01:26:03.574Z,101892.38
2023-03-18T01:36:08.414Z,101902.00
2023-03-18T01:46:37.460Z,101913.44
2023-03-18T01:56:44.561Z,101927.53
2023-03-18T02:06:51.994Z,101934.69
2023-03-18T02:16:59.526Z,101938.13
2023-03-18T02:27:14.316Z,101951.13
2023-03-18T02:37:18.081Z,101967.88
2023-03-18T02:47:25.190Z,101982.97
2023-03-18T02:57:28.069Z,101997.53
2023-03-18T03:07:32.330Z,102014.50
2023-03-18T03:17:35.915Z,102028.91
2023-03-18T03:27:40.475Z,102040.16
2023-03-18T03:37:44.229Z,102055.72
2023-03-18T03:47:49.288Z,102066.72
2023-03-18T03:57:52.843Z,102074.81
2023-03-18T04:08:00.233Z,102091.75
2023-03-18T04:18:07.311Z,102107.22
2023-03-18T04:28:11.986Z,102120.22
2023-03-18T04:38:15.504Z,102136.06
2023-03-18T04:48:20.119Z,102152.50
2023-03-18T04:58:23.577Z,102162.78
2023-03-18T05:08:28.219Z,102173.72
2023-03-18T05:18:31.432Z,102186.53
2023-03-18T05:28:35.885Z,102196.38
2023-03-18T05:38:39.144Z,102211.09
2023-03-18T05:48:44.327Z,102225.16
2023-03-18T05:58:47.506Z,102231.66
2023-03-18T06:08:53.209Z,102240.47
2023-03-18T06:18:56.352Z,102250.00
2023-03-18T06:29:00.833Z,102256.41
2023-03-18T06:39:04.990Z,102270.41
2023-03-18T06:49:09.481Z,102281.66
2023-03-18T06:59:12.534Z,102293.38
2023-03-18T07:09:19.193Z,102298.78
2023-03-18T07:19:23.180Z,102310.22
2023-03-18T07:29:27.871Z,102319.88
2023-03-18T07:39:30.856Z,102330.91
2023-03-18T07:49:35.480Z,102341.38
2023-03-18T07:59:38.258Z,102349.44
2023-03-18T08:09:44.917Z,102359.06
2023-03-18T08:19:49.088Z,102368.22
2023-03-18T08:29:53.469Z,102377.53
2023-03-18T08:39:56.397Z,102377.38
2023-03-18T08:50:00.838Z,102385.47
2023-03-18T09:00:05.803Z,102392.84
2023-03-18T09:10:13.217Z,102397.06
2023-03-18T09:20:17.628Z,102403.38
2023-03-18T09:30:22.073Z,102408.72
2023-03-18T09:40:28.355Z,102413.34
2023-03-18T09:50:42.878Z,102418.06
2023-03-18T10:00:47.037Z,102420.66
2023-03-18T10:10:51.622Z,102410.41
2023-03-18T10:21:10.950Z,102413.22
2023-03-18T10:31:32.511Z,102416.69
2023-03-18T10:41:39.731Z,102420.38
2023-03-18T10:51:52.867Z,102414.44
2023-03-18T11:02:05.093Z,102406.16
2023-03-18T11:12:19.491Z,102403.16
2023-03-18T11:22:25.212Z,102400.47
2023-03-18T11:32:32.466Z,102404.44
2023-03-18T11:42:40.751Z,102404.50
2023-03-18T11:52:52.448Z,102404.00
2023-03-18T12:03:06.239Z,102405.72
2023-03-18T12:13:25.795Z,102407.63
2023-03-18T12:23:52.256Z,102410.44
2023-03-18T12:33:58.062Z,102412.06
2023-03-18T12:44:19.694Z,102413.94
2023-03-18T12:54:43.107Z,102412.47
2023-03-18T13:05:06.343Z,102410.94
2023-03-18T13:15:58.510Z,102401.53
2023-03-18T13:26:12.080Z,102398.09
2023-03-18T13:36:57.315Z,102392.84
2023-03-18T13:47:05.732Z,102394.53
2023-03-18T13:57:35.260Z,102393.00
2023-03-18T14:07:51.753Z,102385.91
2023-03-18T14:17:58.920Z,102384.75
2023-03-18T14:28:28.766Z,102383.25
2023-03-18T14:38:57.396Z,102373.28
2023-03-18T14:49:09.373Z,102369.13
2023-03-18T14:59:27.251Z,102362.41
2023-03-18T15:09:37.056Z,102355.09
2023-03-18T15:19:42.936Z,102347.47
2023-03-18T15:29:51.354Z,102352.38
2023-03-18T15:39:59.236Z,102356.34
2023-03-18T15:50:21.142Z,102356.72
2023-03-18T16:00:26.838Z,102357.00
2023-03-18T16:10:30.712Z,102354.00
2023-03-18T16:20:36.078Z,102346.19
2023-03-18T16:30:41.529Z,102346.88
2023-03-18T16:40:47.275Z,102341.19
2023-03-18T16:50:51.972Z,102337.97
2023-03-18T17:01:07.665Z,102342.69
2023-03-18T17:11:18.764Z,102337.72
2023-03-18T17:21:28.896Z,102338.41
2023-03-18T17:31:34.442Z,102341.06
2023-03-18T17:41:39.972Z,102342.13
2023-03-18T17:51:44.004Z,102347.19
2023-03-18T18:02:06.222Z,102352.41
2023-03-18T18:12:18.549Z,102359.22
2023-03-18T18:22:27.290Z,102362.59
2023-03-18T18:32:37.008Z,102363.03
2023-03-18T18:42:49.520Z,102363.59
2023-03-18T19:03:44.570Z,102356.28
2023-03-18T19:13:51.160Z,102352.72
2023-03-18T19:23:59.226Z,102358.72
2023-03-18T19:34:06.256Z,102354.06
2023-03-18T19:44:21.683Z,102359.66
2023-03-18T19:54:29.031Z,102355.75
2023-03-18T20:04:34.552Z,102361.16
2023-03-18T20:14:40.049Z,102366.56
2023-03-18T20:24:47.835Z,102366.47
2023-03-18T20:34:52.296Z,102369.19
2023-03-18T20:44:58.179Z,102371.78
2023-03-18T20:55:01.713Z,102370.97
2023-03-18T21:05:08.098Z,102369.66
2023-03-18T21:15:17.019Z,102366.94
2023-03-18T21:25:24.755Z,102364.66
2023-03-18T21:35:29.236Z,102361.66
2023-03-18T21:45:34.951Z,102365.63
2023-03-18T21:55:38.091Z,102366.28
2023-03-18T22:05:42.861Z,102370.34
2023-03-18T22:15:46.824Z,102372.59
2023-03-18T22:25:53.216Z,102369.78
2023-03-18T22:35:57.199Z,102369.47
2023-03-18T22:46:03.884Z,102362.84
2023-03-18T22:56:10.271Z,102352.38
2023-03-18T23:06:17.270Z,102351.69
2023-03-18T23:16:21.900Z,102342.56
2023-03-18T23:26:27.017Z,102332.47
2023-03-18T23:36:30.083Z,102321.03
2023-03-18T23:46:35.229Z,102319.19
2023-03-18T23:56:38.660Z,102312.25
